createdAt,value
2023-05-14T00:02:33.809Z,6.37
2023-05-14T00:07:38.197Z,6.80
2023-05-14T00:12:41.197Z,7.05
2023-05-14T00:17:44.524Z,7.83
2023-05-14T00:22:48.785Z,8.00
2023-05-14T00:27:51.835Z,6.65
2023-05-14T00:32:54.362Z,7.30
2023-05-14T00:37:58.450Z,7.13
2023-05-14T00:43:01.526Z,7.20
2023-05-14T00:48:05.431Z,7.00
2023-05-14T00:58:15.012Z,7.22
2023-05-14T01:03:17.670Z,6.70
2023-05-14T01:08:24.710Z,6.13
2023-05-14T01:13:35.537Z,6.78
2023-05-14T01:18:38.306Z,6.50
2023-05-14T01:23:42.851Z,6.18
2023-05-14T01:28:46.173Z,6.45
2023-05-14T01:33:49.483Z,5.93
2023-05-14T01:38:54.194Z,6.45
2023-05-14T01:43:58.340Z,6.57
2023-05-14T01:54:04.958Z,8.18
2023-05-14T02:04:10.609Z,8.40
2023-05-14T02:09:14.699Z,8.63
2023-05-14T02:19:20.432Z,7.93
2023-05-14T02:24:24.492Z,7.60
2023-05-14T02:29:27.023Z,8.27
2023-05-14T02:34:29.674Z,8.10
2023-05-14T02:39:34.137Z,8.15
2023-05-14T02:44:37.155Z,9.48
2023-05-14T02:49:42.541Z,7.00
2023-05-14T02:54:47.060Z,7.80
2023-05-14T02:59:49.658Z,6.35
2023-05-14T03:04:52.655Z,7.50
2023-05-14T03:09:56.835Z,8.23
2023-05-14T03:14:59.930Z,7.90
2023-05-14T03:20:02.820Z,7.80
2023-05-14T03:25:07.530Z,8.13
2023-05-14T03:30:11.729Z,7.18
2023-05-14T03:35:14.388Z,8.23
2023-05-14T03:40:21.878Z,7.93
2023-05-14T03:45:24.955Z,7.80
2023-05-14T03:50:27.530Z,7.00
2023-05-14T03:55:31.978Z,7.47
2023-05-14T04:00:34.919Z,7.22
2023-05-14T04:05:37.701Z,7.97
2023-05-14T04:10:42.343Z,8.02
2023-05-14T04:15:45.889Z,8.10
2023-05-14T04:20:49.044Z,7.57
2023-05-14T04:25:53.283Z,8.50
2023-05-14T04:30:56.462Z,7.57
2023-05-14T04:35:59.048Z,7.63
2023-05-14T04:41:02.995Z,7.20
2023-05-14T04:46:06.656Z,8.18
2023-05-14T04:51:09.527Z,7.97
2023-05-14T04:56:14.100Z,8.47
2023-05-14T05:01:17.088Z,8.75
2023-05-14T05:06:20.330Z,8.83
2023-05-14T05:11:24.915Z,8.00
2023-05-14T05:16:27.594Z,7.28
2023-05-14T05:21:30.702Z,8.10
2023-05-14T05:26:37.074Z,8.37
2023-05-14T05:31:40.313Z,8.23
2023-05-14T05:36:43.416Z,7.72
2023-05-14T05:41:47.966Z,7.70
2023-05-14T05:46:51.230Z,8.07
2023-05-14T05:51:54.006Z,7.75
2023-05-14T05:56:58.378Z,8.38
2023-05-14T06:02:01.125Z,8.38
2023-05-14T06:07:04.135Z,7.45
2023-05-14T06:12:09.375Z,9.03
2023-05-14T06:17:11.940Z,8.32
2023-05-14T06:22:14.826Z,7.95
2023-05-14T06:27:19.387Z,7.67
2023-05-14T06:32:22.158Z,7.43
2023-05-14T06:37:25.281Z,8.30
2023-05-14T06:42:29.599Z,8.47
2023-05-14T06:47:32.227Z,9.55
2023-05-14T06:52:35.208Z,7.88
2023-05-14T06:57:40.811Z,7.40
2023-05-14T07:02:44.028Z,7.22
2023-05-14T07:07:46.585Z,7.40
2023-05-14T07:12:50.899Z,9.43
2023-05-14T07:17:53.796Z,8.38
2023-05-14T07:22:56.378Z,8.82
2023-05-14T07:28:00.837Z,8.35
2023-05-14T07:33:03.772Z,7.40
2023-05-14T07:38:06.623Z,8.00
2023-05-14T07:43:11.156Z,8.20
2023-05-14T07:48:14.044Z,8.48
2023-05-14T07:53:16.914Z,7.40
2023-05-14T07:58:21.185Z,7.13
2023-05-14T08:03:23.906Z,7.80
2023-05-14T08:08:27.307Z,8.18
2023-05-14T08:13:31.248Z,7.68
2023-05-14T08:18:34.166Z,7.50
2023-05-14T08:23:36.777Z,7.00
2023-05-14T08:28:41.101Z,7.40
2023-05-14T08:33:43.678Z,7.82
2023-05-14T08:38:46.470Z,6.50
2023-05-14T08:43:55.276Z,6.87
2023-05-14T08:49:02.576Z,7.18
2023-05-14T08:54:06.565Z,8.73
2023-05-14T08:59:12.563Z,7.65
2023-05-14T09:04:16.903Z,8.20
2023-05-14T09:09:22.284Z,7.45
2023-05-14T09:14:26.255Z,8.35
2023-05-14T09:19:29.008Z,6.60
2023-05-14T09:24:32.200Z,6.93
2023-05-14T09:29:37.103Z,5.85
2023-05-14T09:34:41.232Z,5.95
2023-05-14T09:39:43.724Z,7.55
2023-05-14T09:44:48.549Z,6.00
2023-05-14T09:49:51.107Z,6.53
2023-05-14T09:54:54.076Z,5.18
2023-05-14T09:59:58.019Z,5.07
2023-05-14T10:05:02.764Z,4.80
2023-05-14T10:10:08.471Z,5.45
2023-05-14T10:15:17.583Z,6.00
2023-05-14T10:20:20.911Z,6.65
2023-05-14T10:25:23.952Z,5.80
2023-05-14T10:30:28.049Z,6.57
2023-05-14T10:35:31.548Z,6.10
2023-05-14T10:40:34.198Z,9.65
2023-05-14T10:45:38.584Z,5.53
2023-05-14T10:50:43.230Z,5.43
2023-05-14T10:55:46.459Z,5.13
2023-05-14T11:00:55.543Z,4.80
2023-05-14T11:05:58.380Z,5.20
2023-05-14T11:11:01.637Z,4.70
2023-05-14T11:16:21.534Z,4.97
2023-05-14T11:21:26.067Z,4.65
2023-05-14T11:26:28.719Z,5.40
2023-05-14T11:31:32.917Z,5.50
2023-05-14T11:36:37.765Z,4.90
2023-05-14T11:41:44.664Z,4.85
2023-05-14T11:46:57.538Z,4.43
2023-05-14T11:52:01.348Z,5.13
2023-05-14T11:57:09.471Z,4.47
2023-05-14T12:02:14.027Z,4.82
2023-05-14T12:07:17.520Z,5.18
2023-05-14T12:17:24.319Z,4.22
2023-05-14T12:22:26.997Z,4.70
2023-05-14T12:27:31.264Z,5.00
2023-05-14T12:32:36.011Z,4.88
2023-05-14T12:37:39.918Z,4.03
2023-05-14T12:42:43.160Z,4.38
2023-05-14T12:47:48.124Z,4.45
2023-05-14T12:52:50.969Z,4.55
2023-05-14T12:57:53.493Z,4.97
2023-05-14T13:02:57.495Z,5.13
2023-05-14T13:08:00.441Z,4.10
2023-05-14T13:13:03.835Z,4.60
2023-05-14T13:18:08.416Z,3.83
2023-05-14T13:23:11.559Z,3.47
2023-05-14T13:28:37.649Z,3.58
2023-05-14T13:34:02.834Z,3.40
2023-05-14T13:39:27.214Z,5.10
2023-05-14T13:44:51.108Z,4.07
2023-05-14T13:50:17.473Z,3.90
2023-05-14T13:55:41.032Z,3.58
2023-05-14T14:01:06.318Z,3.50
2023-05-14T14:06:32.000Z,3.35
2023-05-14T14:11:56.154Z,2.95
2023-05-14T14:17:19.456Z,2.90
2023-05-14T14:22:44.440Z,3.10
2023-05-14T14:28:07.724Z,3.88
2023-05-14T14:33:30.983Z,2.80
2023-05-14T14:38:55.158Z,2.55
2023-05-14T14:44:18.361Z,2.50
2023-05-14T14:49:41.292Z,2.95
2023-05-14T15:00:28.245Z,2.43
2023-05-14T15:05:51.716Z,2.92
2023-05-14T15:11:15.152Z,2.20
2023-05-14T15:16:39.651Z,2.28
2023-05-14T15:22:02.578Z,4.22
2023-05-14T15:27:26.152Z,2.30
2023-05-14T15:32:50.739Z,2.95
2023-05-14T15:38:13.875Z,1.95
2023-05-14T15:43:37.158Z,1.98
2023-05-14T15:49:02.192Z,2.17
2023-05-14T15:54:26.230Z,2.30
2023-05-14T15:59:49.180Z,1.63
2023-05-14T16:05:14.975Z,1.33
2023-05-14T16:10:38.828Z,1.67
2023-05-14T16:21:30.056Z,2.20
2023-05-14T16:26:53.139Z,2.00
2023-05-14T16:32:16.037Z,2.30
2023-05-14T16:37:40.998Z,2.20
2023-05-14T16:43:03.936Z,1.80
2023-05-14T16:48:27.609Z,1.85
2023-05-14T16:53:52.446Z,1.15
2023-05-14T16:59:17.102Z,1.50
2023-05-14T17:04:42.224Z,1.30
2023-05-14T17:10:10.230Z,1.70
2023-05-14T17:15:33.195Z,1.80
2023-05-14T17:20:36.175Z,2.60
2023-05-14T17:25:40.539Z,2.00
2023-05-14T17:31:03.454Z,2.30
2023-05-14T17:36:28.809Z,2.15
2023-05-14T17:41:53.036Z,1.80
2023-05-14T17:47:16.823Z,1.75
2023-05-14T17:52:42.064Z,1.75
2023-05-14T17:58:06.571Z,1.70
2023-05-14T18:03:10.336Z,1.50
2023-05-14T18:08:26.480Z,1.77
2023-05-14T18:13:30.909Z,1.80
2023-05-14T18:18:33.759Z,1.60
2023-05-14T18:23:39.115Z,2.07
2023-05-14T18:28:43.087Z,2.50
2023-05-14T18:33:45.656Z,3.63
2023-05-14T18:38:48.189Z,8.57
2023-05-14T18:43:52.163Z,2.10
2023-05-14T18:48:54.788Z,3.00
2023-05-14T18:53:57.495Z,1.80
2023-05-14T18:59:01.383Z,1.90
2023-05-14T19:09:07.980Z,3.38
2023-05-14T19:14:11.914Z,5.65
2023-05-14T19:24:16.739Z,2.40
2023-05-14T19:29:20.631Z,3.28
2023-05-14T19:39:25.497Z,2.80
2023-05-14T19:44:29.350Z,2.53
2023-05-14T19:49:31.855Z,5.47
2023-05-14T19:54:35.223Z,3.40
2023-05-14T19:59:40.353Z,3.67
2023-05-14T20:04:44.947Z,3.25
2023-05-14T20:09:47.543Z,3.63
2023-05-14T20:14:51.841Z,5.15
2023-05-14T20:19:54.376Z,6.45
2023-05-14T20:24:57.088Z,3.83
2023-05-14T20:30:01.015Z,3.90
2023-05-14T20:40:06.703Z,3.60
2023-05-14T20:45:11.432Z,3.70
2023-05-14T20:50:14.803Z,3.10
2023-05-14T20:55:18.872Z,4.00
2023-05-14T21:00:25.695Z,3.53
2023-05-14T21:05:28.893Z,3.58
2023-05-14T21:10:31.381Z,4.73
2023-05-14T21:15:37.900Z,3.50
2023-05-14T21:20:40.797Z,3.90
2023-05-14T21:25:43.620Z,3.05
2023-05-14T21:30:47.485Z,3.83
2023-05-14T21:40:52.493Z,3.65
2023-05-14T21:45:56.564Z,3.30
2023-05-14T21:50:59.085Z,3.40
2023-05-14T21:56:01.739Z,3.60
2023-05-14T22:01:05.809Z,3.25
2023-05-14T22:06:08.402Z,3.38
2023-05-14T22:11:10.981Z,4.18
2023-05-14T22:16:14.972Z,3.35
2023-05-14T22:21:17.460Z,3.35
2023-05-14T22:26:21.456Z,3.40
2023-05-14T22:31:25.404Z,3.20
2023-05-14T22:41:32.214Z,3.80
2023-05-14T22:46:36.223Z,3.00
2023-05-14T22:51:38.939Z,3.70
2023-05-14T22:56:41.620Z,3.45
2023-05-14T23:01:45.650Z,3.33
2023-05-14T23:06:48.242Z,3.67
2023-05-14T23:11:50.757Z,3.72
2023-05-14T23:16:54.639Z,3.90
2023-05-14T23:27:00.769Z,3.42
2023-05-14T23:32:04.871Z,3.42
2023-05-14T23:37:07.654Z,3.70
2023-05-14T23:42:10.227Z,3.38
2023-05-14T23:47:14.111Z,3.95
2023-05-14T23:57:18.933Z,3.50
